createdAt,value
2023-02-03T00:00:08.429Z,76.15
2023-02-03T00:02:37.832Z,75.81
2023-02-03T00:05:06.610Z,75.91
2023-02-03T00:07:35.034Z,76.00
2023-02-03T00:10:04.032Z,75.80
2023-02-03T00:12:32.095Z,75.97
2023-02-03T00:15:00.033Z,75.90
2023-02-03T00:17:28.012Z,75.98
2023-02-03T00:19:57.404Z,75.84
2023-02-03T00:22:25.304Z,75.77
2023-02-03T00:24:53.242Z,75.89
2023-02-03T00:27:21.545Z,75.97
2023-02-03T00:29:49.614Z,75.82
2023-02-03T00:32:17.692Z,75.83
2023-02-03T00:34:46.166Z,75.93
2023-02-03T00:37:15.871Z,75.99
2023-02-03T00:39:44.042Z,75.67
2023-02-03T00:42:12.039Z,76.22
2023-02-03T00:44:39.882Z,75.84
2023-02-03T00:47:09.304Z,75.67
2023-02-03T00:49:37.362Z,75.83
2023-02-03T00:52:05.937Z,75.90
2023-02-03T00:54:35.174Z,75.95
2023-02-03T00:57:03.206Z,75.51
2023-02-03T00:59:31.441Z,75.91
2023-02-03T01:01:59.852Z,75.50
2023-02-03T01:04:28.288Z,76.13
2023-02-03T01:06:58.260Z,75.81
2023-02-03T01:09:26.116Z,75.88
2023-02-03T01:11:55.612Z,76.01
2023-02-03T01:14:23.493Z,75.66
2023-02-03T01:16:51.843Z,75.87
2023-02-03T01:19:20.040Z,75.72
2023-02-03T01:21:48.166Z,75.88
2023-02-03T01:24:18.533Z,75.87
2023-02-03T01:26:46.761Z,76.11
2023-02-03T01:29:16.382Z,75.80
2023-02-03T01:31:44.721Z,76.10
2023-02-03T01:34:16.466Z,75.93
2023-02-03T01:36:44.514Z,75.96
2023-02-03T01:39:12.800Z,75.95
2023-02-03T01:41:41.980Z,76.03
2023-02-03T01:44:51.346Z,75.75
2023-02-03T01:47:26.324Z,76.02
2023-02-03T01:49:59.786Z,75.71
2023-02-03T01:52:28.961Z,75.96
2023-02-03T01:55:01.489Z,76.10
2023-02-03T01:57:35.093Z,75.98
2023-02-03T02:00:06.743Z,75.96
2023-02-03T02:02:37.049Z,75.97
2023-02-03T02:05:11.481Z,76.06
2023-02-03T02:07:41.458Z,75.93
2023-02-03T02:10:10.440Z,75.89
2023-02-03T02:12:38.819Z,75.88
2023-02-03T02:15:08.012Z,75.58
2023-02-03T02:17:53.249Z,75.70
2023-02-03T02:20:39.677Z,75.95
2023-02-03T02:23:34.455Z,75.88
2023-02-03T02:26:38.357Z,75.89
2023-02-03T02:29:26.104Z,75.83
2023-02-03T02:32:11.433Z,75.93
2023-02-03T02:34:52.075Z,76.09
2023-02-03T02:37:27.775Z,75.88
2023-02-03T02:40:06.605Z,75.88
2023-02-03T02:42:40.860Z,75.82
2023-02-03T02:45:16.452Z,75.77
2023-02-03T02:47:46.606Z,75.66
2023-02-03T02:50:19.562Z,75.87
2023-02-03T02:52:49.955Z,75.76
2023-02-03T02:55:24.769Z,75.85
2023-02-03T02:57:56.415Z,75.86
2023-02-03T03:00:25.382Z,75.92
2023-02-03T03:02:55.122Z,75.90
2023-02-03T03:05:23.015Z,75.82
2023-02-03T03:07:57.317Z,75.82
2023-02-03T03:10:30.545Z,75.85
2023-02-03T03:13:03.272Z,75.93
2023-02-03T03:15:34.066Z,75.89
2023-02-03T03:18:11.403Z,76.03
2023-02-03T03:20:43.100Z,76.05
2023-02-03T03:23:19.161Z,76.07
2023-02-03T03:25:50.575Z,75.76
2023-02-03T03:28:26.736Z,75.98
2023-02-03T03:30:55.127Z,75.78
2023-02-03T03:33:25.076Z,76.01
2023-02-03T03:36:00.204Z,75.93
2023-02-03T03:38:33.737Z,76.33
2023-02-03T03:41:07.865Z,76.01
2023-02-03T03:43:42.320Z,75.80
2023-02-03T03:46:15.200Z,75.75
2023-02-03T03:48:51.125Z,75.73
2023-02-03T03:51:23.988Z,76.05
2023-02-03T03:53:53.859Z,76.10
2023-02-03T03:56:26.723Z,75.98
2023-02-03T03:58:55.501Z,75.99
2023-02-03T04:01:24.990Z,76.00
2023-02-03T04:04:00.637Z,76.01
2023-02-03T04:06:30.026Z,76.00
2023-02-03T04:08:58.447Z,75.93
2023-02-03T04:11:43.871Z,76.03
2023-02-03T04:14:11.714Z,76.02
2023-02-03T04:16:39.565Z,76.00
2023-02-03T04:19:09.084Z,75.90
2023-02-03T04:21:37.104Z,76.07
2023-02-03T04:24:05.509Z,76.04
2023-02-03T04:26:33.504Z,75.85
2023-02-03T04:29:01.502Z,75.99
2023-02-03T04:31:29.857Z,76.01
2023-02-03T04:33:58.073Z,76.04
2023-02-03T04:36:27.788Z,75.92
2023-02-03T04:38:55.793Z,76.14
2023-02-03T04:41:23.668Z,76.09
2023-02-03T04:43:51.752Z,76.06
2023-02-03T04:46:20.010Z,75.98
2023-02-03T04:48:48.051Z,76.17
2023-02-03T04:51:15.965Z,76.12
2023-02-03T04:53:45.500Z,76.10
2023-02-03T04:56:13.502Z,76.02
2023-02-03T04:58:41.410Z,76.17
2023-02-03T05:01:10.586Z,76.10
2023-02-03T05:03:38.597Z,76.06
2023-02-03T05:06:07.151Z,75.99
2023-02-03T05:08:35.290Z,76.12
2023-02-03T05:11:06.419Z,75.96
2023-02-03T05:13:34.505Z,76.05
2023-02-03T05:16:02.645Z,76.31
2023-02-03T05:18:30.552Z,76.01
2023-02-03T05:20:58.508Z,76.09
2023-02-03T05:23:26.887Z,76.49
2023-02-03T05:25:54.845Z,76.28
2023-02-03T05:28:24.215Z,76.02
2023-02-03T05:30:52.218Z,76.43
2023-02-03T05:33:20.437Z,76.62
2023-02-03T05:35:48.383Z,76.27
2023-02-03T05:38:16.398Z,76.15
2023-02-03T05:41:02.238Z,76.18
2023-02-03T05:43:31.737Z,76.11
2023-02-03T05:46:01.753Z,76.20
2023-02-03T05:48:30.330Z,76.29
2023-02-03T05:50:58.776Z,76.27
2023-02-03T05:53:27.257Z,76.02
2023-02-03T05:55:55.420Z,76.22
2023-02-03T05:58:23.345Z,76.51
2023-02-03T06:00:53.855Z,76.32
2023-02-03T06:03:21.924Z,76.11
2023-02-03T06:05:50.076Z,76.30
2023-02-03T06:08:18.087Z,76.17
2023-02-03T06:10:46.259Z,76.24
2023-02-03T06:13:17.911Z,76.19
2023-02-03T06:15:45.923Z,76.20
2023-02-03T06:18:15.389Z,76.44
2023-02-03T06:20:43.253Z,76.51
2023-02-03T06:23:11.232Z,76.38
2023-02-03T06:25:39.318Z,76.09
2023-02-03T06:28:07.135Z,76.55
2023-02-03T06:30:35.341Z,76.58
2023-02-03T06:33:03.838Z,76.33
2023-02-03T06:35:33.118Z,76.48
2023-02-03T06:38:01.148Z,76.63
2023-02-03T06:40:29.875Z,76.37
2023-02-03T06:42:58.338Z,76.29
2023-02-03T06:45:26.204Z,76.77
2023-02-03T06:47:54.179Z,76.22
2023-02-03T06:50:22.178Z,76.72
2023-02-03T06:52:51.744Z,76.23
2023-02-03T06:55:19.980Z,76.85
2023-02-03T06:57:49.220Z,76.50
2023-02-03T07:00:19.486Z,76.92
2023-02-03T07:02:47.891Z,76.51
2023-02-03T07:05:16.370Z,76.50
2023-02-03T07:07:44.375Z,76.72
2023-02-03T07:10:14.042Z,76.86
2023-02-03T07:12:42.209Z,76.59
2023-02-03T07:15:11.635Z,76.19
2023-02-03T07:17:39.557Z,76.32
2023-02-03T07:20:08.288Z,76.44
2023-02-03T07:22:36.504Z,76.82
2023-02-03T07:25:04.465Z,76.21
2023-02-03T07:27:33.912Z,76.74
2023-02-03T07:30:01.914Z,76.75
2023-02-03T07:32:31.402Z,76.74
2023-02-03T07:35:01.349Z,76.33
2023-02-03T07:37:29.333Z,76.57
2023-02-03T07:39:57.151Z,76.64
2023-02-03T07:42:25.145Z,76.57
2023-02-03T07:44:54.360Z,77.02
2023-02-03T07:47:22.378Z,76.76
2023-02-03T07:49:50.376Z,76.68
2023-02-03T07:52:18.866Z,76.66
2023-02-03T07:54:47.687Z,76.80
2023-02-03T07:57:15.621Z,76.90
2023-02-03T07:59:44.135Z,76.82
2023-02-03T08:02:13.501Z,76.69
2023-02-03T08:04:41.528Z,77.01
2023-02-03T08:07:09.391Z,77.52
2023-02-03T08:09:37.251Z,76.71
2023-02-03T08:12:05.545Z,76.78
2023-02-03T08:14:33.424Z,76.92
2023-02-03T08:17:01.254Z,77.18
2023-02-03T08:19:30.710Z,76.88
2023-02-03T08:22:00.457Z,77.02
2023-02-03T08:24:28.547Z,77.04
2023-02-03T08:26:56.957Z,77.14
2023-02-03T08:29:24.918Z,76.76
2023-02-03T08:31:54.507Z,77.07
2023-02-03T08:34:22.386Z,76.76
2023-02-03T08:36:51.804Z,76.85
2023-02-03T08:39:19.674Z,76.87
2023-02-03T08:41:47.801Z,76.92
2023-02-03T08:44:15.808Z,77.19
2023-02-03T08:46:44.298Z,77.25
2023-02-03T08:49:12.445Z,77.32
2023-02-03T08:51:41.724Z,77.53
2023-02-03T08:54:10.908Z,77.26
2023-02-03T08:56:40.122Z,77.40
2023-02-03T08:59:08.909Z,77.65
2023-02-03T09:01:36.903Z,77.31
2023-02-03T09:04:07.335Z,77.32
2023-02-03T09:06:36.178Z,77.21
2023-02-03T09:09:04.705Z,77.84
2023-02-03T09:11:34.140Z,77.25
2023-02-03T09:14:02.083Z,77.51
2023-02-03T09:16:31.008Z,77.64
2023-02-03T09:18:59.038Z,77.56
2023-02-03T09:21:32.937Z,77.87
2023-02-03T09:24:05.496Z,77.59
2023-02-03T09:26:34.826Z,77.97
2023-02-03T09:29:02.779Z,77.69
2023-02-03T09:31:30.766Z,77.71
2023-02-03T09:34:00.056Z,77.81
2023-02-03T09:36:28.363Z,77.62
2023-02-03T09:38:57.957Z,77.95
2023-02-03T09:41:49.966Z,78.02
2023-02-03T09:44:24.046Z,78.03
2023-02-03T09:46:56.797Z,77.91
2023-02-03T09:49:29.099Z,78.05
2023-02-03T09:52:03.932Z,78.06
2023-02-03T09:54:43.534Z,78.04
2023-02-03T09:57:19.055Z,78.22
2023-02-03T09:59:46.977Z,78.40
2023-02-03T10:02:28.835Z,78.27
2023-02-03T10:05:01.418Z,78.51
2023-02-03T10:07:41.329Z,78.45
2023-02-03T10:10:18.289Z,78.62
2023-02-03T10:13:02.259Z,78.19
2023-02-03T10:15:44.675Z,78.65
2023-02-03T10:18:16.161Z,78.42
2023-02-03T10:20:48.642Z,78.53
2023-02-03T10:23:19.521Z,78.49
2023-02-03T10:25:57.137Z,78.89
2023-02-03T10:28:31.179Z,79.03
2023-02-03T10:31:01.399Z,79.17
2023-02-03T10:33:30.791Z,78.84
2023-02-03T10:36:08.763Z,78.97
2023-02-03T10:38:47.538Z,79.59
2023-02-03T10:41:16.466Z,79.33
2023-02-03T10:43:51.784Z,79.56
2023-02-03T10:46:22.660Z,79.51
2023-02-03T10:48:50.722Z,79.63
2023-02-03T10:51:23.062Z,79.44
2023-02-03T10:53:53.575Z,79.87
2023-02-03T10:56:25.252Z,79.48
2023-02-03T10:58:56.626Z,79.97
2023-02-03T11:01:26.898Z,79.43
2023-02-03T11:04:04.688Z,79.67
2023-02-03T11:06:33.722Z,79.41
2023-02-03T11:09:01.862Z,80.13
2023-02-03T11:11:32.646Z,80.15
2023-02-03T11:14:17.910Z,80.11
2023-02-03T11:16:47.379Z,79.93
2023-02-03T11:19:18.616Z,79.66
2023-02-03T11:21:49.024Z,79.61
2023-02-03T11:24:21.728Z,79.31
2023-02-03T11:26:53.239Z,79.43
2023-02-03T11:29:25.244Z,79.70
2023-02-03T11:31:55.902Z,79.87
2023-02-03T11:34:28.242Z,79.80
2023-02-03T11:36:56.531Z,79.82
2023-02-03T11:39:29.783Z,79.41
2023-02-03T11:41:58.003Z,80.04
2023-02-03T11:44:31.136Z,79.56
2023-02-03T11:47:02.128Z,79.97
2023-02-03T11:50:03.373Z,79.54
2023-02-03T11:52:51.499Z,79.72
2023-02-03T11:55:33.063Z,79.05
2023-02-03T11:58:19.047Z,79.44
2023-02-03T12:00:56.680Z,79.12
2023-02-03T12:03:41.242Z,79.44
2023-02-03T12:06:25.103Z,79.01
2023-02-03T12:09:07.782Z,79.13
2023-02-03T12:11:52.259Z,79.21
2023-02-03T12:14:36.363Z,79.09
2023-02-03T12:17:26.253Z,78.95
2023-02-03T12:20:13.995Z,78.81
2023-02-03T12:22:52.463Z,79.08
2023-02-03T12:25:34.609Z,78.75
2023-02-03T12:28:16.016Z,78.61
2023-02-03T12:30:52.752Z,78.81
2023-02-03T12:33:28.548Z,78.93
2023-02-03T12:36:07.112Z,78.91
2023-02-03T12:38:41.430Z,78.84
2023-02-03T12:41:15.652Z,78.57
2023-02-03T12:43:49.316Z,78.82
2023-02-03T12:46:20.682Z,78.43
2023-02-03T12:48:54.558Z,78.81
2023-02-03T12:51:30.663Z,78.61
2023-02-03T12:54:04.653Z,78.43
2023-02-03T12:56:40.221Z,78.64
2023-02-03T12:59:16.107Z,78.49
2023-02-03T13:01:50.790Z,78.39
2023-02-03T13:04:30.268Z,78.58
2023-02-03T13:07:07.946Z,78.29
2023-02-03T13:09:42.653Z,78.47
2023-02-03T13:12:15.232Z,78.18
2023-02-03T13:14:47.018Z,78.27
2023-02-03T13:17:20.999Z,78.39
2023-02-03T13:19:53.349Z,78.06
2023-02-03T13:22:24.002Z,78.42
2023-02-03T13:24:57.587Z,78.07
2023-02-03T13:27:40.723Z,77.79
2023-02-03T13:30:28.021Z,78.07
2023-02-03T13:33:42.202Z,78.20
2023-02-03T13:36:33.308Z,78.12
2023-02-03T13:39:19.111Z,77.95
2023-02-03T13:41:50.176Z,78.29
2023-02-03T13:44:21.385Z,77.97
2023-02-03T13:46:50.891Z,77.68
2023-02-03T13:49:25.324Z,78.04
2023-02-03T13:51:55.554Z,77.70
2023-02-03T13:54:29.076Z,77.71
2023-02-03T13:57:02.346Z,78.03
2023-02-03T13:59:41.030Z,77.79
2023-02-03T14:02:32.161Z,78.16
2023-02-03T14:05:02.139Z,78.15
2023-02-03T14:07:34.692Z,77.71
2023-02-03T14:10:24.381Z,77.46
2023-02-03T14:13:00.263Z,77.65
2023-02-03T14:15:34.132Z,77.58
2023-02-03T14:18:32.673Z,77.71
2023-02-03T14:21:22.530Z,77.38
2023-02-03T14:23:57.751Z,77.51
2023-02-03T14:26:34.704Z,77.32
2023-02-03T14:29:04.067Z,77.55
2023-02-03T14:31:32.858Z,77.51
2023-02-03T14:34:09.490Z,77.25
2023-02-03T14:36:41.578Z,77.23
2023-02-03T14:39:48.819Z,76.99
2023-02-03T14:42:33.653Z,77.38
2023-02-03T14:45:17.001Z,77.15
2023-02-03T14:48:00.169Z,77.30
2023-02-03T14:50:40.880Z,77.25
2023-02-03T14:53:32.328Z,77.10
2023-02-03T14:56:14.873Z,77.23
2023-02-03T14:58:49.450Z,77.04
2023-02-03T15:01:29.188Z,77.30
2023-02-03T15:04:23.376Z,77.07
2023-02-03T15:06:53.638Z,77.04
2023-02-03T15:09:31.094Z,77.14
2023-02-03T15:11:59.077Z,76.75
2023-02-03T15:14:31.351Z,76.94
2023-02-03T15:17:01.766Z,76.93
2023-02-03T15:19:34.416Z,76.88
2023-02-03T15:22:02.971Z,76.66
2023-02-03T15:24:38.133Z,76.72
2023-02-03T15:27:06.843Z,76.82
2023-02-03T15:29:37.024Z,77.07
2023-02-03T15:32:11.416Z,76.92
2023-02-03T15:34:42.814Z,76.88
2023-02-03T15:37:17.857Z,76.19
2023-02-03T15:39:55.409Z,76.79
2023-02-03T15:42:27.777Z,76.83
2023-02-03T15:45:00.199Z,76.61
2023-02-03T15:47:35.167Z,76.68
2023-02-03T15:50:14.911Z,76.71
2023-02-03T15:52:45.292Z,76.83
2023-02-03T15:55:24.272Z,76.76
2023-02-03T15:57:52.538Z,76.63
2023-02-03T16:00:43.117Z,76.68
2023-02-03T16:03:21.605Z,76.41
2023-02-03T16:05:50.644Z,76.58
2023-02-03T16:08:38.739Z,76.74
2023-02-03T16:11:30.259Z,76.52
2023-02-03T16:14:00.961Z,76.67
2023-02-03T16:16:34.218Z,76.53
2023-02-03T16:19:05.269Z,76.83
2023-02-03T16:21:36.143Z,76.61
2023-02-03T16:24:28.010Z,76.55
2023-02-03T16:26:56.819Z,76.63
2023-02-03T16:29:48.311Z,76.64
2023-02-03T16:32:37.918Z,76.62
2023-02-03T16:35:29.390Z,76.56
2023-02-03T16:38:15.230Z,76.78
2023-02-03T16:41:00.630Z,76.82
2023-02-03T16:43:45.834Z,76.50
2023-02-03T16:46:31.457Z,76.81
2023-02-03T16:49:18.056Z,76.55
2023-02-03T16:51:46.428Z,76.81
2023-02-03T16:54:17.478Z,76.96
2023-02-03T16:56:45.809Z,76.67
2023-02-03T16:59:14.232Z,76.81
2023-02-03T17:01:42.287Z,76.56
2023-02-03T17:04:11.963Z,76.96
2023-02-03T17:06:41.125Z,76.57
2023-02-03T17:09:09.437Z,76.79
2023-02-03T17:11:37.529Z,76.69
2023-02-03T17:14:05.757Z,76.89
2023-02-03T17:16:33.826Z,76.82
2023-02-03T17:19:02.085Z,76.82
2023-02-03T17:21:32.402Z,76.78
2023-02-03T17:24:00.637Z,76.82
2023-02-03T17:26:28.778Z,76.78
2023-02-03T17:28:58.646Z,76.86
2023-02-03T17:31:26.580Z,76.70
2023-02-03T17:33:54.590Z,76.70
2023-02-03T17:36:23.399Z,76.49
2023-02-03T17:55:30.752Z,76.54
2023-02-03T17:57:58.881Z,76.80
2023-02-03T18:00:27.964Z,76.83
2023-02-03T18:02:56.929Z,76.75
2023-02-03T18:05:25.895Z,76.79
2023-02-03T18:07:53.890Z,76.89
2023-02-03T18:10:21.843Z,76.79
2023-02-03T18:12:51.280Z,76.94
2023-02-03T18:15:19.495Z,76.83
2023-02-03T18:17:47.368Z,76.57
2023-02-03T18:20:15.608Z,76.63
2023-02-03T18:22:45.258Z,76.70
2023-02-03T18:25:16.964Z,76.67
2023-02-03T18:27:47.374Z,76.81
2023-02-03T18:30:22.481Z,76.96
2023-02-03T18:32:51.992Z,76.72
2023-02-03T18:35:19.873Z,76.60
2023-02-03T18:37:47.873Z,76.59
2023-02-03T18:40:15.886Z,76.73
2023-02-03T18:42:43.685Z,76.59
2023-02-03T18:45:12.740Z,76.62
2023-02-03T18:47:42.004Z,76.78
2023-02-03T18:50:11.010Z,76.71
2023-02-03T18:52:39.038Z,76.61
2023-02-03T18:55:07.705Z,76.56
2023-02-03T18:57:35.641Z,76.43
2023-02-03T19:00:04.510Z,76.76
2023-02-03T19:02:32.488Z,76.69
2023-02-03T19:05:01.968Z,76.46
2023-02-03T19:07:29.949Z,76.59
2023-02-03T19:09:57.871Z,76.68
2023-02-03T19:12:27.639Z,76.54
2023-02-03T19:14:55.758Z,76.89
2023-02-03T19:17:23.599Z,76.85
2023-02-03T19:19:51.483Z,76.78
2023-02-03T19:22:21.080Z,76.56
2023-02-03T19:24:49.097Z,76.81
2023-02-03T19:27:17.167Z,76.16
2023-02-03T19:29:45.004Z,76.61
2023-02-03T19:32:13.693Z,76.80
2023-02-03T19:34:41.783Z,76.58
2023-02-03T19:37:09.767Z,76.68
2023-02-03T19:39:39.538Z,76.57
2023-02-03T19:42:07.653Z,76.89
2023-02-03T19:44:37.056Z,76.60
2023-02-03T19:47:06.910Z,76.75
2023-02-03T19:49:35.061Z,76.42
2023-02-03T19:52:03.030Z,76.57
2023-02-03T19:54:30.944Z,76.58
2023-02-03T19:57:01.804Z,76.42
2023-02-03T19:59:29.688Z,76.49
2023-02-03T20:02:01.643Z,76.59
2023-02-03T20:04:33.958Z,76.48
2023-02-03T20:07:01.865Z,76.61
2023-02-03T20:09:29.737Z,76.61
2023-02-03T20:11:57.514Z,76.59
2023-02-03T20:14:26.815Z,76.47
2023-02-03T20:16:54.582Z,76.51
2023-02-03T20:19:22.417Z,76.63
2023-02-03T20:21:50.384Z,76.63
2023-02-03T20:24:18.509Z,76.59
2023-02-03T20:26:46.396Z,76.61
2023-02-03T20:29:14.532Z,76.50
2023-02-03T20:31:43.878Z,76.53
2023-02-03T20:34:12.276Z,76.30
2023-02-03T20:36:40.243Z,76.39
2023-02-03T20:39:15.636Z,76.44
2023-02-03T20:41:43.594Z,76.30
2023-02-03T20:44:14.027Z,76.28
2023-02-03T20:46:43.326Z,76.23
2023-02-03T20:49:12.442Z,76.28
2023-02-03T20:51:40.692Z,76.19
2023-02-03T20:54:15.982Z,76.26
2023-02-03T20:56:44.056Z,76.24
2023-02-03T20:59:13.360Z,76.30
2023-02-03T21:01:41.471Z,76.30
2023-02-03T21:04:32.255Z,76.28
2023-02-03T21:07:00.685Z,76.37
2023-02-03T21:09:28.770Z,76.35
2023-02-03T21:11:56.723Z,76.24
2023-02-03T21:14:27.056Z,76.12
2023-02-03T21:16:54.966Z,76.26
2023-02-03T21:19:30.296Z,75.99
2023-02-03T21:21:58.815Z,76.19
2023-02-03T21:24:29.524Z,76.13
2023-02-03T21:26:58.757Z,76.36
2023-02-03T21:29:30.638Z,76.22
2023-02-03T21:31:59.440Z,76.06
2023-02-03T21:34:31.199Z,76.26
2023-02-03T21:37:03.247Z,76.16
2023-02-03T21:39:33.934Z,76.13
2023-02-03T21:42:39.492Z,76.37
2023-02-03T21:45:25.324Z,76.20
2023-02-03T21:47:54.451Z,76.27
2023-02-03T21:50:31.668Z,76.18
2023-02-03T21:53:18.930Z,76.32
2023-02-03T21:55:46.873Z,75.88
2023-02-03T21:58:23.517Z,76.22
2023-02-03T22:00:52.486Z,76.07
2023-02-03T22:03:26.478Z,76.12
2023-02-03T22:06:13.942Z,76.12
2023-02-03T22:08:43.478Z,76.22
2023-02-03T22:11:11.972Z,76.12
2023-02-03T22:13:40.254Z,76.27
2023-02-03T22:16:08.771Z,76.34
2023-02-03T22:18:37.013Z,76.29
2023-02-03T22:21:06.647Z,76.15
2023-02-03T22:23:34.994Z,76.24
2023-02-03T22:26:02.963Z,76.17
2023-02-03T22:28:30.796Z,76.29
2023-02-03T22:30:59.079Z,76.28
2023-02-03T22:33:27.072Z,76.28
2023-02-03T22:35:55.019Z,76.32
2023-02-03T22:38:24.752Z,76.37
2023-02-03T22:40:53.096Z,76.30
2023-02-03T22:43:21.126Z,76.28
2023-02-03T22:45:49.138Z,76.40
2023-02-03T22:48:17.018Z,76.27
2023-02-03T22:50:44.965Z,75.97
2023-02-03T22:53:13.094Z,76.23
2023-02-03T22:55:43.035Z,76.29
2023-02-03T22:58:11.152Z,76.11
2023-02-03T23:00:39.208Z,76.14
2023-02-03T23:03:07.173Z,76.38
2023-02-03T23:05:35.323Z,76.17
2023-02-03T23:08:03.577Z,76.08
2023-02-03T23:10:32.113Z,76.35
2023-02-03T23:13:01.826Z,76.19
2023-02-03T23:15:30.331Z,76.20
2023-02-03T23:17:58.434Z,76.27
2023-02-03T23:20:26.613Z,76.16
2023-02-03T23:22:54.596Z,76.09
2023-02-03T23:25:22.539Z,75.98
2023-02-03T23:27:50.627Z,76.21
2023-02-03T23:30:20.155Z,75.98
2023-02-03T23:32:48.321Z,76.12
2023-02-03T23:35:33.852Z,75.98
2023-02-03T23:38:01.767Z,76.02
2023-02-03T23:40:29.935Z,76.03
2023-02-03T23:42:58.120Z,76.13
2023-02-03T23:45:29.860Z,76.10
2023-02-03T23:47:58.059Z,75.87
2023-02-03T23:50:25.984Z,76.02
2023-02-03T23:52:54.098Z,76.06
2023-02-03T23:55:23.507Z,76.25
2023-02-03T23:57:52.603Z,76.21
